Time;durP1;ratioP1;P1;durP2;ratioP2;P2;SDS_P1;SDS_P2;PMS_P1;PMS_P2;Temp;Humidity;BMP_temperature;BMP_pressure;BME280_temperature;BME280_humidity;BME280_pressure;Samples;Min_cycle;Max_cycle;Signal;HPM_P1;HPM_P2
2022/05/07 00:01:56;;;;;;;12.27;10.43;;;;;;;16.18;61.03;100474.31;5055003;28;20044;-89
2022/05/07 00:04:22;;;;;;;15.18;10.85;;;;;;;16.15;60.74;100470.09;5054697;28;20021;-88
2022/05/07 00:06:51;;;;;;;12.38;10.85;;;;;;;16.16;60.94;100468.22;5054782;28;20017;-87
2022/05/07 00:09:17;;;;;;;13.05;10.82;;;;;;;16.15;60.75;100475.47;5038244;28;20025;-89
2022/05/07 00:11:42;;;;;;;13.05;10.77;;;;;;;16.10;60.97;100474.28;5054955;28;20028;-89
2022/05/07 00:14:07;;;;;;;12.95;11.45;;;;;;;16.12;60.54;100472.25;5036568;28;20025;-90
2022/05/07 00:19:17;;;;;;;14.70;11.27;;;;;;;16.11;60.83;100460.63;5055159;28;20032;-88
2022/05/07 00:21:42;;;;;;;16.15;11.73;;;;;;;16.04;60.48;100457.69;5038109;28;20017;-89
2022/05/07 00:24:08;;;;;;;12.70;10.32;;;;;;;16.02;60.46;100458.84;5054476;28;20037;-89
2022/05/07 00:26:33;;;;;;;14.95;11.77;;;;;;;16.01;60.11;100458.00;5037933;28;20033;-88
2022/05/07 00:28:59;;;;;;;14.45;10.93;;;;;;;16.00;61.15;100453.63;5054528;28;20445;-89
2022/05/07 00:31:24;;;;;;;14.43;11.50;;;;;;;16.03;60.46;100452.44;5054459;28;20479;-90
2022/05/07 00:33:49;;;;;;;14.07;11.38;;;;;;;16.10;60.67;100452.69;5054395;28;20039;-90
2022/05/07 00:36:14;;;;;;;12.75;11.32;;;;;;;16.06;60.01;100450.28;5054656;28;20039;-89
2022/05/07 00:38:40;;;;;;;15.38;11.82;;;;;;;16.03;59.98;100452.44;5054440;28;20025;-89
2022/05/07 00:41:05;;;;;;;15.27;12.25;;;;;;;16.00;60.20;100459.00;5054165;28;20056;-88
2022/05/07 00:43:35;;;;;;;15.85;12.07;;;;;;;16.00;60.61;100461.72;5054517;28;20033;-90
2022/05/07 00:46:00;;;;;;;12.45;10.90;;;;;;;15.99;60.68;100457.31;5054100;28;20496;-87
2022/05/07 00:48:26;;;;;;;14.98;12.13;;;;;;;15.88;59.68;100457.59;5037528;28;20032;-89
2022/05/07 00:53:36;;;;;;;14.43;10.88;;;;;;;15.81;60.27;100453.84;5054091;28;20497;-86
2022/05/07 00:56:02;;;;;;;13.50;11.45;;;;;;;15.86;59.83;100451.53;5037154;28;20104;-89
2022/05/07 00:58:28;;;;;;;14.20;11.73;;;;;;;15.90;60.33;100452.06;5054065;28;20056;-89
2022/05/07 01:00:53;;;;;;;13.90;11.23;;;;;;;15.91;59.79;100453.75;5053740;28;20025;-88
2022/05/07 01:03:19;;;;;;;14.02;11.65;;;;;;;15.91;59.87;100446.50;5053547;28;20074;-88
2022/05/07 01:05:44;;;;;;;13.65;11.27;;;;;;;15.89;59.52;100447.66;5037555;28;20033;-89
2022/05/07 01:08:11;;;;;;;13.95;11.38;;;;;;;15.85;59.74;100449.84;5053558;28;20056;-88
2022/05/07 01:10:37;;;;;;;14.82;12.10;;;;;;;15.83;59.75;100449.16;5053892;28;20029;-90
2022/05/07 01:13:02;;;;;;;15.63;12.18;;;;;;;15.78;60.35;100440.69;5053550;28;20021;-88
2022/05/07 01:15:28;;;;;;;15.18;12.10;;;;;;;15.75;60.69;100435.63;5036770;28;20090;-88
2022/05/07 01:17:53;;;;;;;16.13;11.50;;;;;;;15.73;60.53;100434.94;5053708;28;20025;-87
2022/05/07 01:20:18;;;;;;;15.05;12.10;;;;;;;15.79;60.75;100437.00;5053855;28;20017;-89
2022/05/07 01:22:45;;;;;;;13.07;11.52;;;;;;;15.77;60.98;100430.91;5053546;28;20424;-90
2022/05/07 01:25:11;;;;;;;14.93;12.32;;;;;;;15.73;60.67;100430.38;5053175;28;20194;-89
2022/05/07 01:27:36;;;;;;;14.88;11.95;;;;;;;15.69;60.68;100422.78;5053985;28;20530;-90
2022/05/07 01:30:02;;;;;;;15.45;12.10;;;;;;;15.66;60.64;100423.94;5054241;28;20032;-88
2022/05/07 01:32:27;;;;;;;15.18;12.05;;;;;;;15.68;60.31;100426.47;5036288;28;20024;-88
2022/05/07 01:34:53;;;;;;;14.07;11.98;;;;;;;15.66;60.66;100423.94;5052637;28;20021;-89
2022/05/07 01:37:19;;;;;;;15.15;12.02;;;;;;;15.66;61.43;100426.63;5036783;28;20028;-89
2022/05/07 01:39:44;;;;;;;14.52;11.60;;;;;;;15.70;60.31;100424.47;5053103;28;20075;-89
2022/05/07 01:42:09;;;;;;;14.40;11.73;;;;;;;15.67;61.05;100419.41;5053107;28;20060;-89
2022/05/07 01:44:35;;;;;;;13.50;11.25;;;;;;;15.66;60.84;100423.09;5052684;28;20116;-89
2022/05/07 01:49:45;;;;;;;16.05;12.02;;;;;;;15.59;60.59;100422.00;5053415;28;20032;-89
2022/05/07 01:52:10;;;;;;;14.93;11.75;;;;;;;15.55;60.65;100423.31;5053013;28;20052;-88
2022/05/07 01:54:35;;;;;;;14.45;11.25;;;;;;;15.58;61.34;100420.31;5052340;28;20478;-89
2022/05/07 01:57:01;;;;;;;14.75;11.82;;;;;;;15.59;60.71;100427.41;5053107;28;20082;-89
2022/05/07 01:59:26;;;;;;;13.88;11.13;;;;;;;15.57;61.31;100430.22;5052741;28;20059;-89
2022/05/07 02:01:52;;;;;;;14.02;11.40;;;;;;;15.55;61.28;100421.44;5052592;28;20021;-89
2022/05/07 02:04:17;;;;;;;16.25;11.38;;;;;;;15.50;61.26;100422.94;5053633;28;20459;-88
2022/05/07 02:06:42;;;;;;;13.60;11.00;;;;;;;15.51;60.87;100428.16;5036350;28;20025;-87
2022/05/07 02:09:08;;;;;;;13.15;11.27;;;;;;;15.46;60.77;100421.56;5036280;28;20032;-88
2022/05/07 02:11:33;;;;;;;15.63;12.18;;;;;;;15.46;61.29;100432.34;5052285;28;20116;-90
2022/05/07 02:13:58;;;;;;;13.52;10.98;;;;;;;15.43;61.36;100417.31;5051752;28;20112;-90
2022/05/07 02:16:24;;;;;;;14.98;11.68;;;;;;;15.44;60.87;100422.56;5052505;28;20124;-90
2022/05/07 02:18:49;;;;;;;13.10;10.65;;;;;;;15.44;61.40;100425.25;5052697;28;20052;-89
2022/05/07 02:21:14;;;;;;;13.27;10.75;;;;;;;15.40;60.93;100423.88;5052743;28;20025;-88
2022/05/07 02:23:40;;;;;;;13.98;11.27;;;;;;;15.36;61.41;100424.34;5052656;28;20071;-86
2022/05/07 02:26:05;;;;;;;14.65;11.88;;;;;;;15.43;61.59;100428.13;5052319;28;20029;-90
2022/05/07 02:28:30;;;;;;;15.77;11.60;;;;;;;15.42;61.50;100429.97;5052436;28;20024;-88
2022/05/07 02:30:56;;;;;;;13.98;10.98;;;;;;;15.41;61.08;100430.13;5052267;28;20021;-89
2022/05/07 02:33:21;;;;;;;13.88;11.23;;;;;;;15.40;61.05;100425.72;5051865;28;20040;-89
2022/05/07 02:35:46;;;;;;;13.60;10.80;;;;;;;15.37;60.77;100429.59;5035735;28;20029;-89
2022/05/07 02:38:12;;;;;;;15.27;11.45;;;;;;;15.36;61.31;100419.81;5035203;28;20029;-90
2022/05/07 02:43:21;;;;;;;12.65;10.10;;;;;;;15.38;61.66;100423.19;5052766;28;20055;-89
2022/05/07 02:45:46;;;;;;;14.23;11.27;;;;;;;15.37;61.44;100418.81;5052425;28;20021;-89
2022/05/07 02:48:12;;;;;;;13.65;11.00;;;;;;;15.35;61.26;100422.66;5052586;28;20052;-90
2022/05/07 02:50:37;;;;;;;12.75;10.60;;;;;;;15.36;61.51;100421.66;5051962;28;20021;-89
2022/05/07 02:53:02;;;;;;;13.00;10.50;;;;;;;15.36;61.39;100419.81;5051599;28;20029;-89
2022/05/07 02:55:28;;;;;;;12.77;10.52;;;;;;;15.36;61.05;100417.13;5052203;28;20463;-90
2022/05/07 02:57:53;;;;;;;14.65;10.88;;;;;;;15.37;61.55;100407.19;5052261;28;20087;-89
2022/05/07 03:00:18;;;;;;;13.25;10.55;;;;;;;15.36;60.96;100417.13;5052113;28;20352;-89
2022/05/07 03:02:44;;;;;;;12.75;10.40;;;;;;;15.32;61.35;100414.91;5035159;28;20021;-89
2022/05/07 03:05:09;;;;;;;12.50;10.30;;;;;;;15.30;61.25;100417.75;5035155;28;20040;-89
2022/05/07 03:07:34;;;;;;;13.30;10.80;;;;;;;15.31;62.06;100411.34;5052199;28;20028;-88
2022/05/07 03:10:00;;;;;;;12.63;10.43;;;;;;;15.31;61.94;100413.19;5051893;28;20531;-88
2022/05/07 03:12:27;;;;;;;13.57;10.65;;;;;;;15.32;61.96;100407.66;5051715;28;20028;-88
2022/05/07 03:14:52;;;;;;;12.10;10.65;;;;;;;15.32;61.57;100409.50;5051496;28;20069;-89
2022/05/07 03:17:17;;;;;;;13.88;10.77;;;;;;;15.32;61.65;100409.50;5035144;28;20036;-89
2022/05/07 03:19:43;;;;;;;13.93;11.40;;;;;;;15.27;61.46;100404.59;5051667;28;20036;-87
2022/05/07 03:22:08;;;;;;;15.30;10.85;;;;;;;15.25;61.83;100403.06;5051759;28;20039;-88
2022/05/07 03:24:37;;;;;;;13.90;10.02;;;;;;;15.26;61.48;100405.59;5051040;28;20017;-89
2022/05/07 03:27:04;;;;;;;13.15;10.25;;;;;;;15.27;61.84;100401.91;5035522;28;20111;-89
2022/05/07 03:29:29;;;;;;;11.77;9.98;;;;;;;15.24;61.73;100410.28;5051420;28;20029;-89
2022/05/07 03:31:54;;;;;;;13.00;10.73;;;;;;;15.21;61.54;100410.59;5034825;28;20024;-88
2022/05/07 03:34:20;;;;;;;18.65;10.45;;;;;;;15.17;62.01;100411.94;5034739;28;20517;-89
2022/05/07 03:36:45;;;;;;;13.93;10.70;;;;;;;15.08;61.91;100410.97;5051695;28;20079;-90
2022/05/07 03:39:12;;;;;;;13.43;10.02;;;;;;;15.01;62.55;100403.69;5034842;28;20466;-89
2022/05/07 03:41:37;;;;;;;14.23;10.70;;;;;;;14.91;62.73;100402.94;5051263;28;20021;-89
2022/05/07 03:44:02;;;;;;;13.85;11.15;;;;;;;14.89;62.17;100405.78;5051346;28;20098;-89
2022/05/07 03:46:28;;;;;;;13.30;10.43;;;;;;;14.88;62.56;100403.25;5051528;28;20094;-88
2022/05/07 03:48:53;;;;;;;11.93;9.55;;;;;;;14.92;62.44;100402.78;5036217;28;20033;-88
2022/05/07 03:51:18;;;;;;;13.98;10.15;;;;;;;14.98;62.51;100401.31;5038447;28;20021;-88
2022/05/07 03:53:44;;;;;;;14.05;10.60;;;;;;;14.95;62.12;100399.78;5038457;28;20463;-88
2022/05/07 03:56:09;;;;;;;11.82;9.65;;;;;;;15.03;61.92;100396.28;5038919;28;20079;-88
2022/05/07 03:58:35;;;;;;;12.85;10.23;;;;;;;15.01;61.85;100399.16;5038554;28;20021;-89
2022/05/07 04:01:01;;;;;;;13.23;10.65;;;;;;;14.99;62.68;100400.31;5038217;28;20025;-89
2022/05/07 04:03:28;;;;;;;13.50;9.85;;;;;;;15.00;62.29;100397.44;5038300;28;20044;-90
2022/05/07 04:05:54;;;;;;;12.18;9.77;;;;;;;14.96;62.60;100398.75;5038115;28;20025;-90
2022/05/07 04:08:21;;;;;;;14.07;10.38;;;;;;;14.99;63.06;100392.22;5038166;28;20060;-89
2022/05/07 04:10:46;;;;;;;12.80;9.48;;;;;;;15.01;62.93;100391.06;5054673;28;20039;-89
2022/05/07 04:13:12;;;;;;;13.90;9.55;;;;;;;14.96;62.84;100396.06;5038056;28;20025;-89
2022/05/07 04:15:39;;;;;;;13.70;9.40;;;;;;;14.97;62.84;100396.91;5037244;28;20482;-89
2022/05/07 04:18:06;;;;;;;13.23;10.10;;;;;;;15.00;62.64;100402.00;5037823;28;20028;-89
2022/05/07 04:20:31;;;;;;;13.70;9.60;;;;;;;14.98;62.68;100399.47;5054453;28;20036;-89
2022/05/07 04:22:57;;;;;;;13.32;9.80;;;;;;;14.96;62.53;100403.31;5037713;28;20391;-89
2022/05/07 04:25:22;;;;;;;14.77;10.13;;;;;;;14.80;63.20;100410.25;5037943;28;20466;-89
2022/05/07 04:27:47;;;;;;;12.30;9.80;;;;;;;14.88;63.28;100416.69;5053977;28;20020;-88
2022/05/07 04:30:13;;;;;;;14.50;10.63;;;;;;;14.74;63.31;100420.78;5037576;28;20070;-88
2022/05/07 04:32:38;;;;;;;12.93;10.15;;;;;;;14.81;62.95;100421.84;5037298;28;20032;-89
2022/05/07 04:35:05;;;;;;;12.60;10.38;;;;;;;14.78;62.48;100412.25;5037574;28;20026;-89
2022/05/07 04:37:30;;;;;;;14.25;10.18;;;;;;;14.83;63.12;100421.72;5037685;28;20017;-90
2022/05/07 04:39:56;;;;;;;12.18;9.88;;;;;;;14.86;63.06;100416.84;5054149;28;20482;-88
2022/05/07 04:42:21;;;;;;;13.82;10.32;;;;;;;14.86;62.45;100416.00;5037245;28;20040;-90
2022/05/07 04:44:46;;;;;;;11.60;10.00;;;;;;;14.83;62.88;100414.47;5054026;28;20021;-88
2022/05/07 04:47:11;;;;;;;12.93;9.55;;;;;;;14.87;62.33;100420.41;5037834;28;20032;-88
2022/05/07 04:49:37;;;;;;;13.65;10.43;;;;;;;14.87;62.70;100429.31;5037593;28;20083;-88
2022/05/07 04:52:05;;;;;;;13.27;10.40;;;;;;;14.85;62.98;100430.47;5053875;28;20021;-89
2022/05/07 04:54:31;;;;;;;13.68;9.45;;;;;;;14.84;63.70;100429.63;5053985;28;20033;-89
2022/05/07 04:56:56;;;;;;;11.90;9.55;;;;;;;14.84;63.62;100428.78;5037258;28;20481;-90
2022/05/07 04:59:22;;;;;;;13.10;10.60;;;;;;;14.85;63.01;100430.47;5037015;28;20501;-88
2022/05/07 05:01:47;;;;;;;13.27;10.65;;;;;;;14.83;63.09;100429.78;5052446;28;20021;-88
2022/05/07 05:04:13;;;;;;;13.57;10.73;;;;;;;14.89;63.06;100429.16;5053552;28;20439;-88
2022/05/07 05:06:38;;;;;;;13.18;9.68;;;;;;;14.94;63.40;100433.09;5037116;28;20032;-88
2022/05/07 05:09:05;;;;;;;13.88;10.02;;;;;;;14.90;63.32;100441.63;5037130;28;20028;-89
2022/05/07 05:11:31;;;;;;;14.98;10.55;;;;;;;14.88;63.25;100435.56;5036822;28;20021;-87
2022/05/07 05:13:57;;;;;;;13.43;9.93;;;;;;;14.86;63.59;100442.94;5053004;28;20032;-87
2022/05/07 05:16:22;;;;;;;13.73;9.88;;;;;;;14.86;63.80;100451.88;5036775;28;20421;-89
2022/05/07 05:18:48;;;;;;;11.25;9.77;;;;;;;14.87;63.82;100447.31;5036551;28;20076;-89
2022/05/07 05:21:13;;;;;;;12.00;9.75;;;;;;;14.91;64.29;100446.00;5036669;28;20017;-89
2022/05/07 05:23:38;;;;;;;12.57;9.98;;;;;;;14.91;64.40;100446.88;5036334;28;20032;-88
2022/05/07 05:26:04;;;;;;;12.80;10.45;;;;;;;14.91;63.91;100443.31;5036615;28;20025;-88
2022/05/07 05:28:29;;;;;;;12.07;9.85;;;;;;;14.98;64.20;100441.69;5052775;28;20029;-89
2022/05/07 05:30:55;;;;;;;12.35;10.20;;;;;;;14.99;64.00;100452.31;5036301;28;20044;-89
2022/05/07 05:33:22;;;;;;;14.63;10.68;;;;;;;15.04;64.14;100446.47;5052667;28;20060;-89
2022/05/07 05:35:48;;;;;;;13.77;10.35;;;;;;;15.07;64.17;100449.69;5036541;28;20119;-89
2022/05/07 05:38:17;;;;;;;12.40;9.75;;;;;;;15.08;63.86;100451.41;5053190;28;20107;-89
2022/05/07 05:40:42;;;;;;;15.82;9.75;;;;;;;15.09;64.52;100453.09;5036047;28;20136;-90
2022/05/07 05:43:08;;;;;;;12.23;9.80;;;;;;;15.10;64.54;100449.38;5035255;28;20469;-89
2022/05/07 05:45:34;;;;;;;12.27;9.48;;;;;;;15.14;64.03;100447.25;5036099;28;20021;-89
2022/05/07 05:48:01;;;;;;;11.75;8.73;;;;;;;15.13;65.05;100448.22;5036207;28;20245;-89
2022/05/07 05:50:29;;;;;;;13.48;9.15;;;;;;;15.13;65.65;100453.63;5036340;28;20175;-87
2022/05/07 05:52:55;;;;;;;12.90;9.55;;;;;;;15.14;66.03;100447.25;5036084;28;20025;-89
2022/05/07 05:55:20;;;;;;;13.10;9.05;;;;;;;15.24;65.31;100448.00;5036017;28;20474;-88
2022/05/07 05:57:45;;;;;;;11.15;8.95;;;;;;;15.30;65.45;100447.38;5052573;28;20526;-90
2022/05/07 06:00:11;;;;;;;11.38;8.55;;;;;;;15.34;65.06;100453.31;5035987;28;20624;-89
2022/05/07 06:02:37;;;;;;;13.00;9.45;;;;;;;15.29;64.94;100458.31;5051876;28;20033;-89
2022/05/07 06:05:04;;;;;;;13.10;8.90;;;;;;;15.32;64.90;100458.00;5052590;28;20031;-88
2022/05/07 06:07:29;;;;;;;11.82;9.02;;;;;;;15.31;66.29;100459.03;5035855;28;20455;-89
2022/05/07 06:09:55;;;;;;;11.93;9.45;;;;;;;15.26;67.39;100464.88;5035695;28;20039;-89
2022/05/07 06:12:21;;;;;;;13.13;9.50;;;;;;;15.34;67.03;100461.41;5033884;28;20120;-89
2022/05/07 06:14:47;;;;;;;11.05;8.98;;;;;;;15.39;66.54;100459.06;5034553;28;20041;-90
2022/05/07 06:17:12;;;;;;;12.25;9.95;;;;;;;15.47;66.86;100459.13;5052437;28;20096;-89
2022/05/07 06:19:37;;;;;;;13.07;9.75;;;;;;;15.48;66.24;100457.28;5035403;28;20029;-89
2022/05/07 06:22:03;;;;;;;13.15;9.52;;;;;;;15.53;65.43;100458.50;5035625;28;20136;-89
2022/05/07 06:27:28;;;;;;;13.88;9.52;;;;;;;15.61;65.43;100463.16;5021816;28;20040;-87
2022/05/07 06:30:00;;;;;;;12.80;9.95;;;;;;;15.62;65.89;100467.56;5052419;28;20482;-89
2022/05/07 06:32:36;;;;;;;13.35;9.75;;;;;;;15.67;65.16;100468.78;5035825;28;20032;-89
2022/05/07 06:35:05;;;;;;;14.90;10.85;;;;;;;15.74;65.58;100475.22;5035499;28;20070;-88
2022/05/07 06:37:31;;;;;;;12.70;9.82;;;;;;;15.82;65.25;100470.88;5051862;28;20021;-87
2022/05/07 06:39:57;;;;;;;13.43;9.88;;;;;;;15.84;64.79;100466.19;5035211;28;20257;-89
2022/05/07 06:42:22;;;;;;;13.25;10.27;;;;;;;15.87;64.72;100466.69;5035072;28;20029;-89
2022/05/07 06:44:47;;;;;;;13.23;10.57;;;;;;;15.87;65.16;100476.66;5052072;28;20086;-88
2022/05/07 06:47:13;;;;;;;15.65;10.05;;;;;;;15.88;65.33;100481.88;5052502;28;20070;-88
2022/05/07 06:49:38;;;;;;;15.15;10.48;;;;;;;15.91;64.82;100476.16;5051754;28;20040;-88
2022/05/07 06:52:04;;;;;;;13.02;9.80;;;;;;;15.95;64.65;100482.09;5051951;28;20040;-90
2022/05/07 06:54:29;;;;;;;12.02;9.32;;;;;;;15.98;64.32;100482.63;5035359;28;20106;-89
2022/05/07 06:56:54;;;;;;;14.20;10.45;;;;;;;15.97;64.02;100485.47;5035874;28;20025;-88
2022/05/07 06:59:20;;;;;;;15.15;10.50;;;;;;;15.97;64.37;100486.31;5035634;28;20029;-89
2022/05/07 07:01:46;;;;;;;13.45;11.05;;;;;;;15.97;63.73;100485.47;5052186;28;20036;-89
2022/05/07 07:04:12;;;;;;;13.93;10.13;;;;;;;16.00;64.32;100486.00;5035374;28;20025;-88
2022/05/07 07:06:37;;;;;;;13.20;9.80;;;;;;;16.04;64.34;100489.22;5051974;28;20104;-89
2022/05/07 07:09:03;;;;;;;12.23;9.60;;;;;;;16.09;63.88;100491.47;5035607;28;20075;-89
2022/05/07 07:11:28;;;;;;;14.18;10.70;;;;;;;16.11;64.43;100494.84;5034735;28;20028;-88
2022/05/07 07:13:55;;;;;;;12.25;10.40;;;;;;;16.09;64.11;100486.06;5051802;28;20083;-88
2022/05/07 07:16:20;;;;;;;11.85;9.90;;;;;;;16.11;64.28;100486.75;5051741;28;20025;-89
2022/05/07 07:18:45;;;;;;;12.63;9.82;;;;;;;16.16;64.21;100496.06;5051705;28;20429;-88
2022/05/07 07:21:11;;;;;;;13.63;10.77;;;;;;;16.13;63.71;100492.84;5034215;28;20021;-85
2022/05/07 07:23:37;;;;;;;11.27;10.05;;;;;;;16.19;63.91;100486.78;5034238;28;20036;-86
2022/05/07 07:26:02;;;;;;;13.55;10.20;;;;;;;16.21;64.45;100490.19;5037389;28;20048;-88
2022/05/07 07:28:27;;;;;;;12.70;10.93;;;;;;;16.19;64.27;100494.88;5037194;28;20032;-86
2022/05/07 07:30:53;;;;;;;14.43;11.45;;;;;;;16.11;63.87;100492.16;5054049;28;20020;-87
2022/05/07 07:33:28;;;;;;;16.45;11.50;;;;;;;16.09;63.59;100499.56;5053861;28;20554;-92
2022/05/07 07:35:56;;;;;;;14.70;11.30;;;;;;;16.01;63.37;100503.03;5040021;28;20127;-91
2022/05/07 07:38:21;;;;;;;12.65;10.35;;;;;;;15.95;64.75;100496.41;5039595;28;20031;-91
2022/05/07 07:40:50;;;;;;;13.98;10.95;;;;;;;16.01;64.60;100489.53;5039616;28;20112;-91
2022/05/07 07:43:16;;;;;;;13.48;10.40;;;;;;;16.04;63.93;100487.38;5040125;28;20025;-92
2022/05/07 07:48:26;;;;;;;11.73;9.63;;;;;;;16.26;65.05;100485.97;5055162;28;20434;-89
2022/05/07 07:50:51;;;;;;;12.85;10.13;;;;;;;16.33;64.75;100489.72;5054308;28;20033;-89
2022/05/07 07:53:16;;;;;;;13.27;9.73;;;;;;;16.35;63.84;100495.81;5028389;28;20033;-89
2022/05/07 07:55:42;;;;;;;12.68;10.18;;;;;;;16.36;64.23;100493.94;5030959;28;20025;-89
2022/05/07 07:58:09;;;;;;;12.57;9.85;;;;;;;16.39;63.87;100501.72;5031443;28;20021;-89
2022/05/07 08:00:38;;;;;;;12.93;10.10;;;;;;;16.40;64.53;100491.78;5033767;28;20087;-88
2022/05/07 08:03:09;;;;;;;10.50;8.50;;;;;;;16.42;64.61;100497.84;5036977;28;20023;-89
2022/05/07 08:05:36;;;;;;;11.52;8.38;;;;;;;16.42;63.66;100493.31;5037637;28;20464;-88
2022/05/07 08:13:33;;;;;;;13.05;9.20;;;;;;;16.53;63.87;100487.59;5052558;28;20048;-88
2022/05/07 08:15:59;;;;;;;11.73;9.43;;;;;;;16.54;63.59;100491.16;5036547;28;20033;-88
2022/05/07 08:18:25;;;;;;;13.35;9.98;;;;;;;16.49;63.16;100490.78;5036391;28;20036;-88
2022/05/07 08:20:50;;;;;;;12.02;9.98;;;;;;;16.52;63.48;100501.28;5036419;28;20032;-88
2022/05/07 08:23:15;;;;;;;10.93;8.73;;;;;;;16.56;63.72;100503.50;5036558;28;20068;-89
2022/05/07 08:25:41;;;;;;;12.15;8.90;;;;;;;16.60;64.22;100499.47;5053211;28;20113;-88
2022/05/07 08:28:06;;;;;;;10.90;9.32;;;;;;;16.63;63.29;100501.84;5036317;28;20120;-89
2022/05/07 08:30:31;;;;;;;11.57;9.13;;;;;;;16.67;62.83;100488.88;5033626;28;20018;-89
2022/05/07 08:32:57;;;;;;;11.63;9.23;;;;;;;16.75;63.75;100493.47;5020572;28;20040;-89
2022/05/07 08:35:23;;;;;;;9.75;8.70;;;;;;;16.73;64.25;100493.63;5020060;28;20088;-91
2022/05/07 08:37:50;;;;;;;10.63;8.32;;;;;;;16.79;64.10;100489.44;5036195;28;20024;-92
2022/05/07 08:40:17;;;;;;;11.60;9.63;;;;;;;16.77;63.06;100495.00;5054960;28;20017;-92
2022/05/07 08:42:43;;;;;;;11.68;9.30;;;;;;;16.76;63.76;100496.00;5055013;28;20029;-92
2022/05/07 08:45:09;;;;;;;10.93;8.43;;;;;;;16.78;63.40;100496.69;5036593;28;20017;-92
2022/05/07 08:47:35;;;;;;;11.07;9.05;;;;;;;16.76;63.91;100492.47;5030536;28;20053;-88
2022/05/07 08:50:00;;;;;;;11.00;8.25;;;;;;;16.78;63.56;100496.69;5035657;28;20052;-87
2022/05/07 08:52:27;;;;;;;10.27;7.80;;;;;;;16.82;64.14;100498.03;5036097;28;20032;-87
2022/05/07 08:54:52;;;;;;;14.15;9.65;;;;;;;16.84;63.58;100487.06;5036625;28;20056;-87
2022/05/07 08:57:18;;;;;;;9.93;8.55;;;;;;;16.85;63.40;100486.91;5036719;28;20463;-87
2022/05/07 08:59:44;;;;;;;11.98;9.40;;;;;;;16.85;63.30;100491.47;5033900;28;20022;-86
2022/05/07 09:02:10;;;;;;;10.50;8.40;;;;;;;16.88;63.72;100489.28;5040249;28;20374;-92
2022/05/07 09:04:38;;;;;;;9.85;8.05;;;;;;;16.91;63.93;100488.09;5053928;28;20059;-91
2022/05/07 09:07:05;;;;;;;14.00;10.68;;;;;;;16.96;63.07;100491.16;5037926;28;20028;-92
2022/05/07 09:09:33;;;;;;;14.60;10.55;;;;;;;16.96;63.07;100485.75;5037510;28;20033;-92
2022/05/07 09:11:58;;;;;;;12.85;9.25;;;;;;;16.95;63.94;100489.47;5036327;28;20079;-92
2022/05/07 09:14:31;;;;;;;9.85;8.23;;;;;;;16.99;63.96;100491.66;5036219;28;20045;-92
2022/05/07 09:17:00;;;;;;;11.48;8.93;;;;;;;17.03;63.25;100494.03;5037653;28;20167;-92
2022/05/07 09:19:28;;;;;;;9.70;8.50;;;;;;;17.06;64.33;100491.03;5034678;28;20025;-91
2022/05/07 09:22:07;;;;;;;13.25;8.60;;;;;;;17.10;64.59;100486.97;5037615;28;20021;-93
2022/05/07 09:24:33;;;;;;;12.60;8.70;;;;;;;17.13;64.10;100490.19;5033962;28;20475;-91
2022/05/07 09:26:58;;;;;;;11.82;9.48;;;;;;;17.14;62.95;100491.88;5037327;28;20035;-88
2022/05/07 09:29:27;;;;;;;12.43;8.85;;;;;;;17.13;63.05;100487.47;5054158;28;20021;-87
2022/05/07 09:31:53;;;;;;;9.48;8.35;;;;;;;17.16;63.22;100486.31;5034013;28;20017;-88
2022/05/07 09:37:14;;;;;;;11.40;7.95;;;;;;;17.23;63.13;100492.72;5068473;28;20016;-86
2022/05/07 09:39:48;;;;;;;11.35;9.00;;;;;;;17.23;63.79;100479.22;5069016;28;20029;-86
2022/05/07 09:42:19;;;;;;;9.77;7.60;;;;;;;17.23;63.14;100488.16;5086655;23;20135;-93
2022/05/07 09:44:45;;;;;;;10.75;8.85;;;;;;;17.26;63.01;100476.16;5037185;28;20021;-92
2022/05/07 09:47:12;;;;;;;9.02;6.97;;;;;;;17.29;63.75;100486.66;5037019;28;20032;-92
2022/05/07 09:50:19;;;;;;;13.02;9.30;;;;;;;17.33;64.01;100481.75;5054162;28;20028;-92
2022/05/07 09:52:26;;;;;;;13.48;10.35;;;;;;;17.35;62.46;100479.72;5053531;28;20033;-93
2022/05/07 09:57:37;;;;;;;12.30;9.90;;;;;;;17.37;62.72;100481.25;5053950;28;20047;-92
2022/05/07 10:00:07;;;;;;;11.48;9.60;;;;;;;17.37;62.82;100477.69;5053479;28;20128;-91
2022/05/07 10:02:58;;;;;;;14.05;10.00;;;;;;;17.39;62.56;100478.38;5049931;28;20414;-91
2022/05/07 10:05:51;;;;;;;10.45;8.82;;;;;;;17.42;62.49;100470.75;5070225;28;20386;-92
2022/05/07 10:08:21;;;;;;;13.95;11.20;;;;;;;17.46;62.83;100474.81;5053285;28;20471;-94
2022/05/07 10:10:47;;;;;;;17.05;12.13;;;;;;;17.50;63.00;100475.31;5036699;28;20018;-92
2022/05/07 10:13:16;;;;;;;14.90;11.63;;;;;;;17.56;62.43;100471.97;5016373;28;20445;-92
2022/05/07 10:15:41;;;;;;;16.80;12.32;;;;;;;17.58;62.36;100468.06;5021689;28;20104;-93
2022/05/07 10:18:07;;;;;;;12.20;9.48;;;;;;;17.55;62.98;100463.00;5018551;28;20137;-88
2022/05/07 10:20:39;;;;;;;15.15;11.50;;;;;;;17.61;64.02;100456.91;5014552;28;20022;-94
2022/05/07 10:23:06;;;;;;;15.48;11.70;;;;;;;17.66;62.41;100460.94;5007581;28;20124;-92
2022/05/07 10:25:32;;;;;;;15.47;12.07;;;;;;;17.60;62.97;100463.31;5033552;28;20025;-91
2022/05/07 10:28:07;;;;;;;14.05;10.77;;;;;;;17.57;62.81;100465.53;5016333;28;20322;-94
2022/05/07 10:30:47;;;;;;;15.30;11.60;;;;;;;17.57;62.81;100462.81;5012416;28;20033;-92
2022/05/07 10:33:13;;;;;;;15.02;11.77;;;;;;;17.55;62.13;100463.00;5028071;28;20455;-89
2022/05/07 10:35:54;;;;;;;17.02;12.20;;;;;;;17.55;62.68;100463.00;5033149;28;20074;-91
2022/05/07 10:38:31;;;;;;;16.63;13.85;;;;;;;17.58;62.78;100464.50;5032163;28;20442;-92
2022/05/07 10:41:07;;;;;;;18.60;13.80;;;;;;;17.59;62.25;100466.22;5033101;28;20057;-92
2022/05/07 10:43:46;;;;;;;18.15;13.82;;;;;;;17.60;60.80;100460.63;5013214;28;20418;-92
2022/05/07 10:46:18;;;;;;;18.38;14.13;;;;;;;17.65;62.05;100462.81;5005546;28;20033;-92
2022/05/07 10:48:47;;;;;;;18.73;13.88;;;;;;;17.67;62.21;100465.38;5017928;28;20022;-92
2022/05/07 10:51:29;;;;;;;20.25;13.57;;;;;;;17.68;61.57;100454.38;5032724;28;20028;-91
2022/05/07 10:53:57;;;;;;;20.30;14.55;;;;;;;17.71;61.19;100454.03;5034193;28;20112;-94
2022/05/07 10:56:23;;;;;;;14.02;10.90;;;;;;;17.72;62.22;100447.63;5016155;28;20095;-89
2022/05/07 10:58:57;;;;;;;19.83;14.18;;;;;;;17.83;62.48;100449.09;5034217;28;20033;-91
2022/05/07 11:01:24;;;;;;;21.17;15.85;;;;;;;17.94;62.07;100454.16;5035285;28;20032;-91
2022/05/07 11:04:01;;;;;;;19.30;14.20;;;;;;;18.05;62.02;100444.84;5018810;28;20033;-90
2022/05/07 11:06:26;;;;;;;19.35;14.90;;;;;;;18.07;61.14;100459.03;5018115;28;20376;-89
2022/05/07 11:08:55;;;;;;;22.38;15.98;;;;;;;18.12;60.61;100446.69;5018085;28;20033;-91
2022/05/07 11:11:20;;;;;;;;;;;;;;;18.08;60.16;100447.19;5020074;28;20018;-90
2022/05/07 11:13:53;;;;;;;52.10;34.60;;;;;;;18.19;59.83;100444.94;5034872;28;19920;-91
2022/05/07 11:16:20;;;;;;;20.70;15.93;;;;;;;18.12;60.49;100438.56;5019485;28;20131;-90
2022/05/07 11:18:51;;;;;;;17.77;14.48;;;;;;;18.10;59.56;100442.47;5035890;28;20155;-90
2022/05/07 11:21:21;;;;;;;20.17;17.17;;;;;;;18.09;58.50;100438.91;5019663;28;20033;-91
2022/05/07 11:23:54;;;;;;;17.05;13.38;;;;;;;18.08;58.26;100436.38;5035914;28;20026;-91
2022/05/07 11:26:20;;;;;;;14.98;12.07;;;;;;;18.12;57.53;100435.84;5036141;28;20017;-89
2022/05/07 11:28:46;;;;;;;14.88;11.48;;;;;;;18.10;57.84;100439.75;5019692;28;20022;-90
2022/05/07 11:31:15;;;;;;;16.50;12.38;;;;;;;18.09;59.14;100438.06;5035763;28;20052;-89
2022/05/07 11:33:40;;;;;;;14.38;11.35;;;;;;;18.10;58.94;100434.34;5025977;28;20029;-91
2022/05/07 11:36:07;;;;;;;16.63;12.95;;;;;;;18.13;59.59;100436.69;5031624;28;20028;-89
2022/05/07 11:38:36;;;;;;;19.42;14.85;;;;;;;18.26;60.09;100439.69;5035561;28;20036;-88